createdAt,value
2019-05-22T00:00:47.621Z,12.10
2019-05-22T00:03:21.307Z,12.10
2019-05-22T00:05:56.800Z,12.10
2019-05-22T00:08:25.558Z,12.10
2019-05-22T00:10:59.697Z,12.10
2019-05-22T00:13:38.445Z,12.20
2019-05-22T00:16:40.393Z,12.20
2019-05-22T00:19:15.477Z,12.20
2019-05-22T00:21:57.532Z,12.30
2019-05-22T00:24:27.586Z,12.20
2019-05-22T00:27:04.472Z,12.30
2019-05-22T00:29:34.050Z,12.30
2019-05-22T00:32:07.452Z,12.40
2019-05-22T00:34:52.756Z,12.40
2019-05-22T00:37:23.383Z,12.40
2019-05-22T00:40:08.427Z,12.40
2019-05-22T00:42:41.247Z,12.40
2019-05-22T00:45:13.091Z,12.30
2019-05-22T00:47:44.726Z,12.20
2019-05-22T00:50:22.754Z,12.30
2019-05-22T00:53:06.144Z,12.30
2019-05-22T00:56:04.084Z,12.40
2019-05-22T00:58:47.461Z,12.50
2019-05-22T01:01:23.575Z,12.50
2019-05-22T01:03:53.849Z,12.60
2019-05-22T01:06:58.343Z,12.60
2019-05-22T01:09:39.770Z,12.50
2019-05-22T01:12:16.250Z,12.60
2019-05-22T01:14:51.063Z,12.60
2019-05-22T01:18:09.998Z,12.50
2019-05-22T01:20:46.093Z,12.50
2019-05-22T01:23:32.991Z,12.50
2019-05-22T01:26:05.712Z,12.40
2019-05-22T01:28:37.278Z,12.40
2019-05-22T01:31:16.029Z,12.40
2019-05-22T01:33:50.484Z,12.50
2019-05-22T01:36:22.166Z,12.40
2019-05-22T01:39:35.065Z,12.50
2019-05-22T01:42:06.943Z,12.50
2019-05-22T01:44:39.310Z,12.50
2019-05-22T01:47:17.832Z,12.50
2019-05-22T01:49:59.986Z,12.60
2019-05-22T01:52:31.264Z,12.50
2019-05-22T01:55:01.891Z,12.60
2019-05-22T01:57:31.277Z,12.60
2019-05-22T02:00:13.540Z,12.50
2019-05-22T02:03:31.198Z,12.40
2019-05-22T02:06:51.251Z,12.60
2019-05-22T02:09:28.768Z,12.50
2019-05-22T02:12:05.176Z,12.40
2019-05-22T02:14:44.578Z,12.40
2019-05-22T02:20:53.344Z,12.30
2019-05-22T02:24:05.086Z,12.40
2019-05-22T02:26:37.040Z,12.30
2019-05-22T02:29:10.888Z,12.40
2019-05-22T02:31:45.178Z,12.30
2019-05-22T02:34:17.181Z,12.30
2019-05-22T02:36:54.196Z,12.20
2019-05-22T02:39:30.696Z,12.20
2019-05-22T02:42:06.613Z,12.20
2019-05-22T02:45:22.567Z,12.20
2019-05-22T02:51:20.730Z,12.10
2019-05-22T02:53:52.027Z,12.20
2019-05-22T02:56:41.875Z,12.20
2019-05-22T03:00:01.964Z,12.20
2019-05-22T03:03:16.190Z,12.20
2019-05-22T03:05:50.939Z,12.20
2019-05-22T03:08:22.799Z,12.20
2019-05-22T03:10:55.463Z,12.20
2019-05-22T03:13:57.558Z,12.30
2019-05-22T03:16:32.893Z,12.30
2019-05-22T03:19:26.364Z,12.30
2019-05-22T03:21:57.391Z,12.10
2019-05-22T03:24:33.685Z,12.00
2019-05-22T03:27:05.203Z,12.00
2019-05-22T03:30:16.383Z,11.90
2019-05-22T03:32:48.442Z,11.90
2019-05-22T03:35:21.882Z,12.00
2019-05-22T03:37:51.840Z,12.10
2019-05-22T03:40:37.819Z,12.20
2019-05-22T03:43:15.248Z,12.20
2019-05-22T03:45:48.092Z,12.20
2019-05-22T03:48:23.749Z,12.20
2019-05-22T03:51:43.097Z,12.20
2019-05-22T03:54:15.156Z,12.30
2019-05-22T03:56:50.162Z,12.40
2019-05-22T03:59:34.572Z,12.30
2019-05-22T04:02:09.104Z,12.20
2019-05-22T04:04:41.213Z,12.20
2019-05-22T04:07:17.843Z,12.10
2019-05-22T04:09:48.748Z,11.90
2019-05-22T04:12:18.567Z,12.00
2019-05-22T04:14:55.855Z,12.10
2019-05-22T04:17:28.910Z,12.20
2019-05-22T04:20:10.886Z,12.30
2019-05-22T04:22:43.310Z,12.40
2019-05-22T04:25:21.831Z,12.60
2019-05-22T04:27:51.216Z,12.60
2019-05-22T04:30:20.492Z,12.70
2019-05-22T04:32:49.706Z,12.60
2019-05-22T04:35:24.601Z,12.60
2019-05-22T04:38:04.161Z,12.70
2019-05-22T04:41:19.301Z,12.80
2019-05-22T04:43:55.372Z,12.70
2019-05-22T04:46:27.283Z,12.60
2019-05-22T04:48:56.206Z,12.70
2019-05-22T04:51:26.563Z,12.80
2019-05-22T04:53:59.889Z,12.90
2019-05-22T04:56:38.461Z,13.00
2019-05-22T04:59:11.797Z,13.30
2019-05-22T05:01:48.438Z,13.50
2019-05-22T05:04:19.809Z,13.90
2019-05-22T05:06:56.717Z,14.40
2019-05-22T05:09:25.591Z,15.00
2019-05-22T05:11:56.981Z,15.40
2019-05-22T05:14:28.840Z,15.90
2019-05-22T05:17:10.032Z,17.60
2019-05-22T05:19:38.636Z,19.20
2019-05-22T05:22:19.203Z,20.20
2019-05-22T05:24:51.300Z,21.10
2019-05-22T05:27:19.359Z,21.50
2019-05-22T05:29:51.001Z,20.70
2019-05-22T05:32:20.390Z,20.20
2019-05-22T05:34:55.251Z,19.90
2019-05-22T05:37:32.630Z,20.10
2019-05-22T05:40:10.116Z,19.80
2019-05-22T05:42:40.611Z,19.70
2019-05-22T05:45:15.690Z,19.90
2019-05-22T05:48:44.180Z,19.80
2019-05-22T05:51:18.852Z,19.50
2019-05-22T05:54:03.123Z,19.50
2019-05-22T05:57:10.315Z,19.10
2019-05-22T05:59:42.455Z,19.20
2019-05-22T06:02:23.725Z,20.30
2019-05-22T06:04:58.215Z,21.00
2019-05-22T06:07:29.250Z,21.30
2019-05-22T06:10:29.568Z,20.80
2019-05-22T06:13:05.300Z,20.90
2019-05-22T06:15:47.220Z,20.30
2019-05-22T06:18:31.916Z,20.00
2019-05-22T06:21:04.301Z,18.70
2019-05-22T06:23:40.879Z,18.10
2019-05-22T06:26:20.727Z,17.30
2019-05-22T06:28:55.233Z,17.30
2019-05-22T06:32:20.122Z,20.00
2019-05-22T06:34:48.799Z,21.60
2019-05-22T06:37:42.146Z,25.50
2019-05-22T06:40:21.239Z,27.40
2019-05-22T06:43:24.806Z,26.00
2019-05-22T06:45:59.598Z,27.30
2019-05-22T06:48:31.806Z,27.40
2019-05-22T06:51:18.557Z,29.40
2019-05-22T06:53:42.210Z,27.50
2019-05-22T06:56:32.116Z,24.10
2019-05-22T06:59:42.977Z,24.90
2019-05-22T07:02:13.959Z,23.60
2019-05-22T07:04:44.238Z,24.40
2019-05-22T07:07:23.945Z,23.50
2019-05-22T07:09:59.451Z,24.30
2019-05-22T07:12:34.952Z,24.30
2019-05-22T07:15:11.026Z,26.90
2019-05-22T07:17:46.893Z,28.70
2019-05-22T07:20:18.313Z,29.70
2019-05-22T07:22:53.363Z,31.00
2019-05-22T07:25:22.879Z,32.90
2019-05-22T07:27:51.517Z,33.20
2019-05-22T07:30:23.603Z,33.00
2019-05-22T07:32:55.491Z,32.20
2019-05-22T07:36:04.763Z,32.90
2019-05-22T07:38:38.258Z,33.30
2019-05-22T07:41:08.471Z,32.10
2019-05-22T07:43:43.879Z,27.20
2019-05-22T07:46:14.505Z,27.40
2019-05-22T07:49:16.575Z,28.80
2019-05-22T07:52:09.651Z,25.70
2019-05-22T07:54:40.653Z,22.30
2019-05-22T07:57:40.187Z,22.80
2019-05-22T08:00:12.860Z,25.50
2019-05-22T08:02:44.535Z,27.10
2019-05-22T08:05:17.684Z,26.70
2019-05-22T08:07:55.828Z,23.10
2019-05-22T08:10:28.243Z,24.30
2019-05-22T08:13:00.999Z,25.20
2019-05-22T08:16:02.742Z,24.90
2019-05-22T08:18:58.608Z,24.10
2019-05-22T08:21:34.604Z,27.10
2019-05-22T08:24:07.312Z,29.20
2019-05-22T08:26:53.957Z,30.00
2019-05-22T08:29:18.128Z,26.60
2019-05-22T08:31:48.402Z,27.20
2019-05-22T08:34:36.683Z,29.20
2019-05-22T08:37:39.736Z,28.40
2019-05-22T08:40:31.984Z,25.60
2019-05-22T08:43:03.625Z,25.10
2019-05-22T08:45:42.902Z,26.80
2019-05-22T08:48:18.709Z,25.20
2019-05-22T08:50:55.319Z,26.20
2019-05-22T08:53:25.024Z,27.50
2019-05-22T08:56:02.582Z,25.80
2019-05-22T08:58:36.794Z,26.90
2019-05-22T09:01:15.792Z,24.50
2019-05-22T09:03:50.306Z,24.90
2019-05-22T09:06:24.506Z,23.70
2019-05-22T09:08:55.896Z,22.90
2019-05-22T09:11:28.282Z,24.00
2019-05-22T09:14:09.034Z,23.30
2019-05-22T09:16:43.976Z,24.00
2019-05-22T09:19:16.935Z,23.00
2019-05-22T09:21:54.660Z,22.20
2019-05-22T09:24:30.631Z,21.60
2019-05-22T09:27:02.882Z,22.10
2019-05-22T09:29:34.106Z,23.60
2019-05-22T09:32:14.702Z,24.90
2019-05-22T09:34:46.364Z,23.70
2019-05-22T09:37:18.169Z,23.60
2019-05-22T09:40:38.729Z,25.50
2019-05-22T09:43:07.380Z,26.30
2019-05-22T09:45:39.034Z,23.50
2019-05-22T09:48:11.043Z,25.20
2019-05-22T09:50:50.620Z,25.80
2019-05-22T09:53:22.979Z,26.30
2019-05-22T09:56:02.784Z,27.30
2019-05-22T09:58:34.996Z,27.10
2019-05-22T10:01:10.945Z,25.50
2019-05-22T10:03:43.316Z,26.50
2019-05-22T10:06:12.693Z,25.20
2019-05-22T10:08:45.035Z,25.50
2019-05-22T10:11:21.618Z,26.00
2019-05-22T10:13:59.507Z,26.30
2019-05-22T10:16:34.213Z,26.30
2019-05-22T10:19:22.627Z,26.10
2019-05-22T10:21:51.462Z,25.70
2019-05-22T10:24:41.359Z,25.10
2019-05-22T10:27:16.885Z,24.70
2019-05-22T10:29:52.250Z,24.70
2019-05-22T10:32:48.988Z,23.30
2019-05-22T10:35:23.131Z,23.70
2019-05-22T10:37:55.121Z,24.20
2019-05-22T10:41:23.120Z,24.80
2019-05-22T10:43:58.544Z,25.20
2019-05-22T10:46:33.254Z,24.40
2019-05-22T10:49:07.856Z,24.50
2019-05-22T10:51:39.107Z,24.40
2019-05-22T10:54:10.919Z,24.50
2019-05-22T10:56:42.135Z,24.20
2019-05-22T10:59:15.964Z,24.80
2019-05-22T11:01:52.839Z,25.20
2019-05-22T11:04:27.477Z,25.50
2019-05-22T11:06:57.092Z,25.50
2019-05-22T11:12:52.100Z,21.70
2019-05-22T11:15:27.712Z,22.70
2019-05-22T11:18:02.869Z,23.20
2019-05-22T11:20:33.196Z,23.60
2019-05-22T11:23:04.273Z,24.10
2019-05-22T11:25:40.853Z,24.10
2019-05-22T11:28:13.897Z,24.20
2019-05-22T11:30:43.611Z,24.60
2019-05-22T11:33:18.059Z,24.80
2019-05-22T11:35:49.254Z,24.90
2019-05-22T11:38:20.956Z,24.60
2019-05-22T11:40:52.816Z,24.30
2019-05-22T11:43:24.832Z,24.40
2019-05-22T11:46:06.372Z,24.40
2019-05-22T11:48:41.236Z,24.20
2019-05-22T11:51:16.030Z,24.60
2019-05-22T11:54:07.449Z,25.00
2019-05-22T11:56:23.724Z,25.20
2019-05-22T11:58:59.173Z,25.30
2019-05-22T12:02:09.251Z,24.80
2019-05-22T12:04:48.281Z,24.60
2019-05-22T12:07:17.087Z,24.60
2019-05-22T12:09:48.752Z,24.90
2019-05-22T12:12:26.428Z,25.00
2019-05-22T12:15:02.101Z,24.60
2019-05-22T12:17:39.389Z,24.60
2019-05-22T12:20:11.410Z,25.00
2019-05-22T12:22:41.623Z,25.50
2019-05-22T12:25:24.009Z,25.80
2019-05-22T12:27:53.152Z,25.80
2019-05-22T12:30:26.512Z,25.40
2019-05-22T12:33:01.542Z,25.20
2019-05-22T12:35:42.307Z,25.10
2019-05-22T12:38:12.893Z,25.30
2019-05-22T12:40:47.399Z,25.40
2019-05-22T12:43:16.977Z,25.40
2019-05-22T12:45:45.922Z,25.50
2019-05-22T12:48:21.095Z,25.50
2019-05-22T12:50:59.616Z,25.70
2019-05-22T12:53:30.214Z,25.40
2019-05-22T12:56:02.055Z,25.30
2019-05-22T12:58:35.115Z,25.30
2019-05-22T13:01:06.320Z,25.10
2019-05-22T13:03:41.346Z,24.90
2019-05-22T13:06:16.830Z,25.00
2019-05-22T13:09:17.473Z,25.10
2019-05-22T13:11:52.444Z,25.20
2019-05-22T13:14:27.912Z,25.30
2019-05-22T13:17:01.052Z,24.80
2019-05-22T13:19:37.568Z,24.00
2019-05-22T13:22:12.762Z,23.80
2019-05-22T13:24:44.024Z,23.60
2019-05-22T13:27:22.150Z,23.20
2019-05-22T13:29:52.714Z,23.20
2019-05-22T13:32:35.558Z,23.20
2019-05-22T13:35:08.025Z,23.30
2019-05-22T13:37:56.776Z,23.60
2019-05-22T13:40:33.494Z,23.00
2019-05-22T13:43:28.731Z,22.00
2019-05-22T13:46:30.302Z,22.10
2019-05-22T13:49:07.101Z,22.60
2019-05-22T13:51:35.973Z,23.10
2019-05-22T13:54:14.929Z,23.10
2019-05-22T13:56:46.468Z,23.40
2019-05-22T13:59:24.631Z,22.90
2019-05-22T14:01:59.313Z,22.90
2019-05-22T14:05:14.041Z,23.60
2019-05-22T14:07:49.826Z,23.70
2019-05-22T14:10:24.405Z,24.00
2019-05-22T14:13:30.216Z,24.10
2019-05-22T14:16:19.035Z,23.40
2019-05-22T14:19:00.156Z,23.10
2019-05-22T14:25:48.856Z,23.20
2019-05-22T14:28:22.690Z,23.20
2019-05-22T14:30:52.020Z,23.40
2019-05-22T14:33:28.210Z,23.60
2019-05-22T14:37:07.246Z,23.90
2019-05-22T14:39:37.986Z,24.20
2019-05-22T14:42:08.444Z,24.30
2019-05-22T14:44:50.489Z,24.20
2019-05-22T14:47:22.408Z,24.20
2019-05-22T14:50:08.583Z,23.70
2019-05-22T14:52:42.101Z,23.60
2019-05-22T14:56:10.360Z,23.50
